sensor_id;sensor_type;location;lat;lon;timestamp;P1;durP1;ratioP1;P2;durP2;ratioP2
9160;SDS011;4615;51.340;8.288;2022-11-20T00:02:00;11.00;;;10.00;;
9160;SDS011;4615;51.340;8.288;2022-11-20T00:04:26;10.35;;;9.40;;
9160;SDS011;4615;51.340;8.288;2022-11-20T00:06:53;9.85;;;8.85;;
9160;SDS011;4615;51.340;8.288;2022-11-20T00:09:20;9.65;;;8.75;;
9160;SDS011;4615;51.340;8.288;2022-11-20T00:11:47;10.05;;;9.15;;
9160;SDS011;4615;51.340;8.288;2022-11-20T00:14:13;9.77;;;8.85;;
9160;SDS011;4615;51.340;8.288;2022-11-20T00:16:40;9.50;;;8.60;;
9160;SDS011;4615;51.340;8.288;2022-11-20T00:19:06;9.57;;;8.68;;
9160;SDS011;4615;51.340;8.288;2022-11-20T00:21:32;9.57;;;8.52;;
9160;SDS011;4615;51.340;8.288;2022-11-20T00:23:59;9.38;;;8.45;;
9160;SDS011;4615;51.340;8.288;2022-11-20T00:26:27;9.70;;;8.80;;
9160;SDS011;4615;51.340;8.288;2022-11-20T00:28:54;9.63;;;8.63;;
9160;SDS011;4615;51.340;8.288;2022-11-20T00:31:21;9.90;;;8.90;;
9160;SDS011;4615;51.340;8.288;2022-11-20T00:33:48;9.77;;;8.77;;
9160;SDS011;4615;51.340;8.288;2022-11-20T00:36:15;8.65;;;7.85;;
9160;SDS011;4615;51.340;8.288;2022-11-20T00:38:42;8.07;;;7.30;;
9160;SDS011;4615;51.340;8.288;2022-11-20T00:41:09;9.45;;;7.93;;
9160;SDS011;4615;51.340;8.288;2022-11-20T00:43:38;8.30;;;7.40;;
9160;SDS011;4615;51.340;8.288;2022-11-20T00:46:05;8.43;;;7.63;;
9160;SDS011;4615;51.340;8.288;2022-11-20T00:48:32;8.93;;;8.02;;
9160;SDS011;4615;51.340;8.288;2022-11-20T00:50:58;9.02;;;8.13;;
9160;SDS011;4615;51.340;8.288;2022-11-20T00:53:25;8.57;;;7.72;;
9160;SDS011;4615;51.340;8.288;2022-11-20T00:55:54;9.27;;;7.22;;
9160;SDS011;4615;51.340;8.288;2022-11-20T00:58:21;8.40;;;7.60;;
9160;SDS011;4615;51.340;8.288;2022-11-20T01:00:49;8.57;;;7.75;;
9160;SDS011;4615;51.340;8.288;2022-11-20T01:03:15;9.60;;;8.60;;
9160;SDS011;4615;51.340;8.288;2022-11-20T01:05:42;10.15;;;9.05;;
9160;SDS011;4615;51.340;8.288;2022-11-20T01:08:09;12.57;;;11.10;;
9160;SDS011;4615;51.340;8.288;2022-11-20T01:10:35;9.98;;;9.07;;
9160;SDS011;4615;51.340;8.288;2022-11-20T01:13:02;10.37;;;9.27;;
9160;SDS011;4615;51.340;8.288;2022-11-20T01:15:52;9.82;;;8.82;;
9160;SDS011;4615;51.340;8.288;2022-11-20T01:18:19;9.07;;;7.87;;
9160;SDS011;4615;51.340;8.288;2022-11-20T01:20:45;7.75;;;7.05;;
9160;SDS011;4615;51.340;8.288;2022-11-20T01:23:11;7.38;;;6.68;;
9160;SDS011;4615;51.340;8.288;2022-11-20T01:25:38;7.95;;;7.15;;
9160;SDS011;4615;51.340;8.288;2022-11-20T01:28:04;8.25;;;7.45;;
9160;SDS011;4615;51.340;8.288;2022-11-20T01:30:30;8.73;;;7.82;;
9160;SDS011;4615;51.340;8.288;2022-11-20T01:32:58;8.77;;;7.90;;
9160;SDS011;4615;51.340;8.288;2022-11-20T01:35:25;9.45;;;8.45;;
9160;SDS011;4615;51.340;8.288;2022-11-20T01:37:51;8.93;;;7.95;;
9160;SDS011;4615;51.340;8.288;2022-11-20T01:40:17;8.30;;;7.50;;
9160;SDS011;4615;51.340;8.288;2022-11-20T01:42:44;8.48;;;7.68;;
9160;SDS011;4615;51.340;8.288;2022-11-20T01:48:15;9.50;;;8.50;;
9160;SDS011;4615;51.340;8.288;2022-11-20T01:50:42;11.10;;;9.57;;
9160;SDS011;4615;51.340;8.288;2022-11-20T01:53:09;10.90;;;9.70;;
9160;SDS011;4615;51.340;8.288;2022-11-20T01:55:38;11.00;;;9.18;;
9160;SDS011;4615;51.340;8.288;2022-11-20T01:58:07;9.80;;;8.80;;
9160;SDS011;4615;51.340;8.288;2022-11-20T02:00:34;9.60;;;8.60;;
9160;SDS011;4615;51.340;8.288;2022-11-20T02:03:01;8.50;;;7.60;;
9160;SDS011;4615;51.340;8.288;2022-11-20T02:05:31;8.70;;;7.80;;
9160;SDS011;4615;51.340;8.288;2022-11-20T02:07:58;8.45;;;7.55;;
9160;SDS011;4615;51.340;8.288;2022-11-20T02:10:26;8.73;;;7.82;;
9160;SDS011;4615;51.340;8.288;2022-11-20T02:12:53;9.00;;;8.10;;
9160;SDS011;4615;51.340;8.288;2022-11-20T02:15:37;8.65;;;7.75;;
9160;SDS011;4615;51.340;8.288;2022-11-20T02:18:03;8.20;;;7.40;;
9160;SDS011;4615;51.340;8.288;2022-11-20T02:20:33;8.00;;;7.27;;
9160;SDS011;4615;51.340;8.288;2022-11-20T02:22:59;8.23;;;7.43;;
9160;SDS011;4615;51.340;8.288;2022-11-20T02:25:31;6.88;;;6.22;;
9160;SDS011;4615;51.340;8.288;2022-11-20T02:27:59;7.30;;;6.60;;
9160;SDS011;4615;51.340;8.288;2022-11-20T02:30:25;8.18;;;7.25;;
9160;SDS011;4615;51.340;8.288;2022-11-20T02:32:51;7.38;;;6.68;;
9160;SDS011;4615;51.340;8.288;2022-11-20T02:35:38;7.30;;;6.60;;
9160;SDS011;4615;51.340;8.288;2022-11-20T02:38:05;10.02;;;6.72;;
9160;SDS011;4615;51.340;8.288;2022-11-20T02:40:33;7.30;;;6.65;;
9160;SDS011;4615;51.340;8.288;2022-11-20T02:42:59;7.47;;;6.68;;
9160;SDS011;4615;51.340;8.288;2022-11-20T02:45:26;6.90;;;6.25;;
9160;SDS011;4615;51.340;8.288;2022-11-20T02:47:52;6.80;;;6.18;;
9160;SDS011;4615;51.340;8.288;2022-11-20T02:50:19;6.50;;;5.90;;
9160;SDS011;4615;51.340;8.288;2022-11-20T02:52:45;7.10;;;6.38;;
9160;SDS011;4615;51.340;8.288;2022-11-20T02:55:12;9.02;;;8.13;;
9160;SDS011;4615;51.340;8.288;2022-11-20T02:57:40;9.30;;;8.40;;
9160;SDS011;4615;51.340;8.288;2022-11-20T03:00:07;8.82;;;7.95;;
9160;SDS011;4615;51.340;8.288;2022-11-20T03:02:33;8.50;;;7.60;;
9160;SDS011;4615;51.340;8.288;2022-11-20T03:05:00;8.93;;;8.02;;
9160;SDS011;4615;51.340;8.288;2022-11-20T03:07:26;8.50;;;7.65;;
9160;SDS011;4615;51.340;8.288;2022-11-20T03:09:53;8.23;;;7.43;;
9160;SDS011;4615;51.340;8.288;2022-11-20T03:12:19;9.10;;;8.20;;
9160;SDS011;4615;51.340;8.288;2022-11-20T03:14:47;9.52;;;8.60;;
9160;SDS011;4615;51.340;8.288;2022-11-20T03:17:13;10.10;;;9.10;;
9160;SDS011;4615;51.340;8.288;2022-11-20T03:19:40;10.03;;;9.03;;
9160;SDS011;4615;51.340;8.288;2022-11-20T03:22:06;10.10;;;9.10;;
9160;SDS011;4615;51.340;8.288;2022-11-20T03:24:32;9.90;;;8.90;;
9160;SDS011;4615;51.340;8.288;2022-11-20T03:26:59;9.63;;;8.63;;
9160;SDS011;4615;51.340;8.288;2022-11-20T03:29:25;8.85;;;7.95;;
9160;SDS011;4615;51.340;8.288;2022-11-20T03:31:53;8.38;;;7.57;;
9160;SDS011;4615;51.340;8.288;2022-11-20T03:34:19;9.20;;;8.20;;
9160;SDS011;4615;51.340;8.288;2022-11-20T03:36:45;9.35;;;8.35;;
9160;SDS011;4615;51.340;8.288;2022-11-20T03:39:12;9.55;;;8.55;;
9160;SDS011;4615;51.340;8.288;2022-11-20T03:41:39;9.40;;;8.50;;
9160;SDS011;4615;51.340;8.288;2022-11-20T03:44:07;9.35;;;8.45;;
9160;SDS011;4615;51.340;8.288;2022-11-20T03:46:33;9.07;;;7.90;;
9160;SDS011;4615;51.340;8.288;2022-11-20T03:49:01;9.02;;;8.13;;
9160;SDS011;4615;51.340;8.288;2022-11-20T03:51:28;8.82;;;7.93;;
9160;SDS011;4615;51.340;8.288;2022-11-20T03:53:55;9.07;;;8.05;;
9160;SDS011;4615;51.340;8.288;2022-11-20T03:56:22;9.82;;;8.82;;
9160;SDS011;4615;51.340;8.288;2022-11-20T03:58:49;8.57;;;7.68;;
9160;SDS011;4615;51.340;8.288;2022-11-20T04:01:16;8.40;;;7.47;;
9160;SDS011;4615;51.340;8.288;2022-11-20T04:03:43;8.80;;;7.72;;
9160;SDS011;4615;51.340;8.288;2022-11-20T04:06:12;8.50;;;7.60;;
9160;SDS011;4615;51.340;8.288;2022-11-20T04:08:39;9.02;;;8.10;;
9160;SDS011;4615;51.340;8.288;2022-11-20T04:11:09;8.73;;;7.82;;
9160;SDS011;4615;51.340;8.288;2022-11-20T04:13:36;9.05;;;7.40;;
9160;SDS011;4615;51.340;8.288;2022-11-20T04:16:02;7.95;;;7.15;;
9160;SDS011;4615;51.340;8.288;2022-11-20T04:18:29;8.43;;;7.50;;
9160;SDS011;4615;51.340;8.288;2022-11-20T04:20:56;8.07;;;7.20;;
9160;SDS011;4615;51.340;8.288;2022-11-20T04:23:23;8.35;;;6.88;;
9160;SDS011;4615;51.340;8.288;2022-11-20T04:25:50;7.88;;;6.75;;
9160;SDS011;4615;51.340;8.288;2022-11-20T04:28:16;7.85;;;7.05;;
9160;SDS011;4615;51.340;8.288;2022-11-20T04:30:43;8.13;;;7.20;;
9160;SDS011;4615;51.340;8.288;2022-11-20T04:33:09;8.18;;;7.00;;
9160;SDS011;4615;51.340;8.288;2022-11-20T04:35:36;8.30;;;7.20;;
9160;SDS011;4615;51.340;8.288;2022-11-20T04:38:02;8.43;;;7.45;;
9160;SDS011;4615;51.340;8.288;2022-11-20T04:40:30;11.50;;;8.25;;
9160;SDS011;4615;51.340;8.288;2022-11-20T04:42:56;10.55;;;8.57;;
9160;SDS011;4615;51.340;8.288;2022-11-20T04:45:23;12.48;;;9.23;;
9160;SDS011;4615;51.340;8.288;2022-11-20T04:47:49;9.98;;;7.82;;
9160;SDS011;4615;51.340;8.288;2022-11-20T04:50:16;8.57;;;7.32;;
9160;SDS011;4615;51.340;8.288;2022-11-20T04:52:42;8.38;;;7.45;;
9160;SDS011;4615;51.340;8.288;2022-11-20T04:55:08;9.60;;;7.40;;
9160;SDS011;4615;51.340;8.288;2022-11-20T04:57:37;10.33;;;7.63;;
9160;SDS011;4615;51.340;8.288;2022-11-20T05:00:04;10.07;;;7.57;;
9160;SDS011;4615;51.340;8.288;2022-11-20T05:02:31;9.20;;;7.55;;
9160;SDS011;4615;51.340;8.288;2022-11-20T05:04:57;9.48;;;7.15;;
9160;SDS011;4615;51.340;8.288;2022-11-20T05:07:23;8.50;;;7.32;;
9160;SDS011;4615;51.340;8.288;2022-11-20T05:09:50;9.95;;;7.35;;
9160;SDS011;4615;51.340;8.288;2022-11-20T05:12:16;11.32;;;7.97;;
9160;SDS011;4615;51.340;8.288;2022-11-20T05:14:44;8.73;;;7.60;;
9160;SDS011;4615;51.340;8.288;2022-11-20T05:17:10;11.13;;;8.13;;
9160;SDS011;4615;51.340;8.288;2022-11-20T05:19:37;10.98;;;7.78;;
9160;SDS011;4615;51.340;8.288;2022-11-20T05:22:04;10.25;;;7.72;;
9160;SDS011;4615;51.340;8.288;2022-11-20T05:24:30;8.40;;;6.95;;
9160;SDS011;4615;51.340;8.288;2022-11-20T05:26:57;9.75;;;7.32;;
9160;SDS011;4615;51.340;8.288;2022-11-20T05:29:23;11.27;;;8.07;;
9160;SDS011;4615;51.340;8.288;2022-11-20T05:31:51;10.38;;;7.75;;
9160;SDS011;4615;51.340;8.288;2022-11-20T05:34:17;9.40;;;7.85;;
9160;SDS011;4615;51.340;8.288;2022-11-20T05:36:43;9.70;;;7.53;;
9160;SDS011;4615;51.340;8.288;2022-11-20T05:39:10;10.57;;;7.43;;
9160;SDS011;4615;51.340;8.288;2022-11-20T05:41:36;9.93;;;7.50;;
9160;SDS011;4615;51.340;8.288;2022-11-20T05:44:03;11.50;;;8.15;;
9160;SDS011;4615;51.340;8.288;2022-11-20T05:46:29;10.45;;;7.72;;
9160;SDS011;4615;51.340;8.288;2022-11-20T05:48:57;11.65;;;8.02;;
9160;SDS011;4615;51.340;8.288;2022-11-20T05:51:25;11.13;;;7.95;;
9160;SDS011;4615;51.340;8.288;2022-11-20T05:53:52;11.60;;;8.50;;
9160;SDS011;4615;51.340;8.288;2022-11-20T05:56:19;12.55;;;8.93;;
9160;SDS011;4615;51.340;8.288;2022-11-20T05:58:46;13.07;;;8.75;;
9160;SDS011;4615;51.340;8.288;2022-11-20T06:01:13;12.25;;;8.85;;
9160;SDS011;4615;51.340;8.288;2022-11-20T06:03:39;10.90;;;8.03;;
9160;SDS011;4615;51.340;8.288;2022-11-20T06:06:08;8.48;;;7.57;;
9160;SDS011;4615;51.340;8.288;2022-11-20T06:08:35;8.68;;;6.68;;
9160;SDS011;4615;51.340;8.288;2022-11-20T06:11:04;7.85;;;6.40;;
9160;SDS011;4615;51.340;8.288;2022-11-20T06:13:31;9.38;;;6.72;;
9160;SDS011;4615;51.340;8.288;2022-11-20T06:15:57;8.82;;;7.40;;
9160;SDS011;4615;51.340;8.288;2022-11-20T06:18:25;10.98;;;8.18;;
9160;SDS011;4615;51.340;8.288;2022-11-20T06:20:58;11.43;;;8.27;;
9160;SDS011;4615;51.340;8.288;2022-11-20T06:23:26;8.88;;;7.05;;
9160;SDS011;4615;51.340;8.288;2022-11-20T06:25:53;9.35;;;6.80;;
9160;SDS011;4615;51.340;8.288;2022-11-20T06:28:19;10.53;;;7.40;;
9160;SDS011;4615;51.340;8.288;2022-11-20T06:30:47;9.70;;;6.93;;
9160;SDS011;4615;51.340;8.288;2022-11-20T06:33:13;10.05;;;7.43;;
9160;SDS011;4615;51.340;8.288;2022-11-20T06:35:40;10.98;;;7.70;;
9160;SDS011;4615;51.340;8.288;2022-11-20T06:38:06;10.57;;;7.85;;
9160;SDS011;4615;51.340;8.288;2022-11-20T06:40:34;11.18;;;7.60;;
9160;SDS011;4615;51.340;8.288;2022-11-20T06:43:00;11.13;;;8.02;;
9160;SDS011;4615;51.340;8.288;2022-11-20T06:45:26;11.68;;;7.57;;
9160;SDS011;4615;51.340;8.288;2022-11-20T06:47:53;10.95;;;8.13;;
9160;SDS011;4615;51.340;8.288;2022-11-20T06:50:19;10.88;;;9.32;;
9160;SDS011;4615;51.340;8.288;2022-11-20T06:52:46;13.50;;;10.80;;
9160;SDS011;4615;51.340;8.288;2022-11-20T06:55:12;13.23;;;8.70;;
9160;SDS011;4615;51.340;8.288;2022-11-20T06:57:40;12.80;;;8.07;;
9160;SDS011;4615;51.340;8.288;2022-11-20T07:00:06;12.07;;;7.93;;
9160;SDS011;4615;51.340;8.288;2022-11-20T07:02:33;11.88;;;8.00;;
9160;SDS011;4615;51.340;8.288;2022-11-20T07:04:59;11.25;;;7.63;;
9160;SDS011;4615;51.340;8.288;2022-11-20T07:07:26;11.10;;;7.97;;
9160;SDS011;4615;51.340;8.288;2022-11-20T07:09:52;10.57;;;8.75;;
9160;SDS011;4615;51.340;8.288;2022-11-20T07:12:18;11.63;;;8.52;;
9160;SDS011;4615;51.340;8.288;2022-11-20T07:14:46;12.33;;;8.60;;
9160;SDS011;4615;51.340;8.288;2022-11-20T07:17:13;11.15;;;7.68;;
9160;SDS011;4615;51.340;8.288;2022-11-20T07:19:39;9.77;;;7.57;;
9160;SDS011;4615;51.340;8.288;2022-11-20T07:22:05;12.27;;;8.10;;
9160;SDS011;4615;51.340;8.288;2022-11-20T07:24:32;12.80;;;8.10;;
9160;SDS011;4615;51.340;8.288;2022-11-20T07:26:58;13.10;;;8.75;;
9160;SDS011;4615;51.340;8.288;2022-11-20T07:29:24;12.10;;;8.23;;
9160;SDS011;4615;51.340;8.288;2022-11-20T07:31:52;13.23;;;8.60;;
9160;SDS011;4615;51.340;8.288;2022-11-20T07:34:20;14.00;;;10.80;;
9160;SDS011;4615;51.340;8.288;2022-11-20T07:36:46;14.20;;;9.93;;
9160;SDS011;4615;51.340;8.288;2022-11-20T07:39:13;13.27;;;9.48;;
9160;SDS011;4615;51.340;8.288;2022-11-20T07:41:39;16.00;;;11.88;;
9160;SDS011;4615;51.340;8.288;2022-11-20T07:44:06;15.05;;;11.20;;
9160;SDS011;4615;51.340;8.288;2022-11-20T07:46:32;13.30;;;9.80;;
9160;SDS011;4615;51.340;8.288;2022-11-20T07:49:00;12.15;;;9.00;;
9160;SDS011;4615;51.340;8.288;2022-11-20T07:51:26;11.55;;;9.02;;
9160;SDS011;4615;51.340;8.288;2022-11-20T07:53:54;10.77;;;8.25;;
9160;SDS011;4615;51.340;8.288;2022-11-20T07:56:20;12.95;;;9.15;;
9160;SDS011;4615;51.340;8.288;2022-11-20T07:58:47;13.95;;;9.60;;
9160;SDS011;4615;51.340;8.288;2022-11-20T08:01:13;15.40;;;10.57;;
9160;SDS011;4615;51.340;8.288;2022-11-20T08:03:40;14.07;;;10.32;;
9160;SDS011;4615;51.340;8.288;2022-11-20T08:06:08;14.07;;;10.32;;
9160;SDS011;4615;51.340;8.288;2022-11-20T08:08:34;14.80;;;11.23;;
9160;SDS011;4615;51.340;8.288;2022-11-20T08:11:01;17.55;;;12.82;;
9160;SDS011;4615;51.340;8.288;2022-11-20T08:13:41;15.70;;;11.52;;
9160;SDS011;4615;51.340;8.288;2022-11-20T08:16:25;13.85;;;10.80;;
9160;SDS011;4615;51.340;8.288;2022-11-20T08:18:51;15.02;;;10.52;;
9160;SDS011;4615;51.340;8.288;2022-11-20T08:21:19;14.20;;;9.63;;
9160;SDS011;4615;51.340;8.288;2022-11-20T08:23:46;14.68;;;9.93;;
9160;SDS011;4615;51.340;8.288;2022-11-20T08:26:12;14.25;;;11.48;;
9160;SDS011;4615;51.340;8.288;2022-11-20T08:28:38;15.70;;;10.95;;
9160;SDS011;4615;51.340;8.288;2022-11-20T08:31:05;15.33;;;11.53;;
9160;SDS011;4615;51.340;8.288;2022-11-20T08:33:31;16.07;;;12.60;;
9160;SDS011;4615;51.340;8.288;2022-11-20T08:35:59;15.55;;;12.27;;
9160;SDS011;4615;51.340;8.288;2022-11-20T08:38:27;15.35;;;12.00;;
9160;SDS011;4615;51.340;8.288;2022-11-20T08:40:55;15.73;;;11.95;;
9160;SDS011;4615;51.340;8.288;2022-11-20T08:43:36;14.88;;;11.57;;
9160;SDS011;4615;51.340;8.288;2022-11-20T08:46:02;16.50;;;12.13;;
9160;SDS011;4615;51.340;8.288;2022-11-20T08:48:28;16.25;;;12.15;;
9160;SDS011;4615;51.340;8.288;2022-11-20T08:50:57;16.10;;;12.20;;
9160;SDS011;4615;51.340;8.288;2022-11-20T08:53:23;16.50;;;13.13;;
9160;SDS011;4615;51.340;8.288;2022-11-20T08:55:51;17.10;;;13.02;;
9160;SDS011;4615;51.340;8.288;2022-11-20T08:58:17;15.77;;;12.43;;
9160;SDS011;4615;51.340;8.288;2022-11-20T09:00:44;14.38;;;12.25;;
9160;SDS011;4615;51.340;8.288;2022-11-20T09:03:10;17.27;;;12.95;;
9160;SDS011;4615;51.340;8.288;2022-11-20T09:05:38;18.17;;;13.18;;
9160;SDS011;4615;51.340;8.288;2022-11-20T09:08:04;16.05;;;12.38;;
9160;SDS011;4615;51.340;8.288;2022-11-20T09:10:31;17.48;;;12.93;;
9160;SDS011;4615;51.340;8.288;2022-11-20T09:12:59;16.85;;;12.50;;
9160;SDS011;4615;51.340;8.288;2022-11-20T09:15:25;17.83;;;13.65;;
9160;SDS011;4615;51.340;8.288;2022-11-20T09:17:52;19.05;;;13.48;;
9160;SDS011;4615;51.340;8.288;2022-11-20T09:20:18;18.48;;;13.40;;
9160;SDS011;4615;51.340;8.288;2022-11-20T09:22:46;18.43;;;13.03;;
9160;SDS011;4615;51.340;8.288;2022-11-20T09:25:13;16.00;;;13.02;;
9160;SDS011;4615;51.340;8.288;2022-11-20T09:27:39;18.98;;;14.00;;
9160;SDS011;4615;51.340;8.288;2022-11-20T09:30:08;19.63;;;14.30;;
9160;SDS011;4615;51.340;8.288;2022-11-20T09:32:35;19.58;;;15.10;;
9160;SDS011;4615;51.340;8.288;2022-11-20T09:35:01;18.40;;;14.50;;
9160;SDS011;4615;51.340;8.288;2022-11-20T09:37:28;18.95;;;14.30;;
9160;SDS011;4615;51.340;8.288;2022-11-20T09:39:54;17.63;;;13.98;;
9160;SDS011;4615;51.340;8.288;2022-11-20T09:42:25;19.10;;;15.20;;
9160;SDS011;4615;51.340;8.288;2022-11-20T09:45:06;19.90;;;15.98;;
9160;SDS011;4615;51.340;8.288;2022-11-20T09:47:40;17.52;;;15.13;;
9160;SDS011;4615;51.340;8.288;2022-11-20T09:50:16;19.95;;;14.60;;
9160;SDS011;4615;51.340;8.288;2022-11-20T09:52:47;19.02;;;15.35;;
9160;SDS011;4615;51.340;8.288;2022-11-20T09:55:17;19.13;;;15.88;;
9160;SDS011;4615;51.340;8.288;2022-11-20T09:57:44;20.05;;;16.90;;
9160;SDS011;4615;51.340;8.288;2022-11-20T10:00:12;19.13;;;15.82;;
9160;SDS011;4615;51.340;8.288;2022-11-20T10:02:42;20.23;;;16.35;;
9160;SDS011;4615;51.340;8.288;2022-11-20T10:05:10;21.70;;;16.15;;
9160;SDS011;4615;51.340;8.288;2022-11-20T10:07:39;22.00;;;17.15;;
9160;SDS011;4615;51.340;8.288;2022-11-20T10:10:13;23.83;;;18.52;;
9160;SDS011;4615;51.340;8.288;2022-11-20T10:12:46;29.00;;;22.80;;
9160;SDS011;4615;51.340;8.288;2022-11-20T10:15:19;27.93;;;20.63;;
9160;SDS011;4615;51.340;8.288;2022-11-20T10:17:58;21.20;;;17.50;;
9160;SDS011;4615;51.340;8.288;2022-11-20T10:20:27;18.08;;;14.32;;
9160;SDS011;4615;51.340;8.288;2022-11-20T10:23:05;19.10;;;14.15;;
9160;SDS011;4615;51.340;8.288;2022-11-20T10:25:37;17.80;;;14.32;;
9160;SDS011;4615;51.340;8.288;2022-11-20T10:28:23;17.97;;;13.63;;
9160;SDS011;4615;51.340;8.288;2022-11-20T10:30:55;17.45;;;14.80;;
9160;SDS011;4615;51.340;8.288;2022-11-20T10:33:24;17.73;;;14.57;;
9160;SDS011;4615;51.340;8.288;2022-11-20T10:35:52;16.95;;;14.45;;
9160;SDS011;4615;51.340;8.288;2022-11-20T10:38:21;17.87;;;14.67;;
9160;SDS011;4615;51.340;8.288;2022-11-20T10:40:51;18.08;;;14.93;;
9160;SDS011;4615;51.340;8.288;2022-11-20T10:43:19;16.20;;;13.93;;
9160;SDS011;4615;51.340;8.288;2022-11-20T10:45:49;17.92;;;13.27;;
9160;SDS011;4615;51.340;8.288;2022-11-20T10:48:16;18.02;;;14.45;;
9160;SDS011;4615;51.340;8.288;2022-11-20T10:50:49;16.17;;;13.17;;
9160;SDS011;4615;51.340;8.288;2022-11-20T10:53:23;16.75;;;13.65;;
9160;SDS011;4615;51.340;8.288;2022-11-20T10:55:55;17.17;;;14.98;;
9160;SDS011;4615;51.340;8.288;2022-11-20T10:58:25;17.58;;;14.05;;
9160;SDS011;4615;51.340;8.288;2022-11-20T11:01:02;17.03;;;14.70;;
9160;SDS011;4615;51.340;8.288;2022-11-20T11:03:29;17.13;;;14.93;;
9160;SDS011;4615;51.340;8.288;2022-11-20T11:05:59;17.85;;;13.18;;
9160;SDS011;4615;51.340;8.288;2022-11-20T11:08:28;14.68;;;12.57;;
9160;SDS011;4615;51.340;8.288;2022-11-20T11:10:59;16.63;;;14.20;;
9160;SDS011;4615;51.340;8.288;2022-11-20T11:13:27;16.05;;;13.63;;
9160;SDS011;4615;51.340;8.288;2022-11-20T11:15:54;15.32;;;13.57;;
9160;SDS011;4615;51.340;8.288;2022-11-20T11:18:24;16.38;;;13.60;;
9160;SDS011;4615;51.340;8.288;2022-11-20T11:20:51;17.08;;;15.07;;
9160;SDS011;4615;51.340;8.288;2022-11-20T11:23:26;16.00;;;13.40;;
9160;SDS011;4615;51.340;8.288;2022-11-20T11:25:56;15.57;;;13.88;;
9160;SDS011;4615;51.340;8.288;2022-11-20T11:28:22;15.18;;;12.52;;
9160;SDS011;4615;51.340;8.288;2022-11-20T11:30:53;15.77;;;13.02;;
9160;SDS011;4615;51.340;8.288;2022-11-20T11:33:20;17.23;;;14.80;;
9160;SDS011;4615;51.340;8.288;2022-11-20T11:35:48;24.05;;;18.83;;
9160;SDS011;4615;51.340;8.288;2022-11-20T11:38:19;17.75;;;15.10;;
9160;SDS011;4615;51.340;8.288;2022-11-20T11:40:48;15.43;;;13.60;;
9160;SDS011;4615;51.340;8.288;2022-11-20T11:43:17;15.35;;;13.43;;
9160;SDS011;4615;51.340;8.288;2022-11-20T11:45:59;15.63;;;13.30;;
9160;SDS011;4615;51.340;8.288;2022-11-20T11:48:26;13.70;;;12.27;;
9160;SDS011;4615;51.340;8.288;2022-11-20T11:50:52;15.18;;;13.50;;
9160;SDS011;4615;51.340;8.288;2022-11-20T11:53:19;13.82;;;12.43;;
9160;SDS011;4615;51.340;8.288;2022-11-20T11:55:49;15.23;;;12.45;;
9160;SDS011;4615;51.340;8.288;2022-11-20T11:58:20;15.73;;;13.20;;
9160;SDS011;4615;51.340;8.288;2022-11-20T12:00:54;15.65;;;13.93;;
9160;SDS011;4615;51.340;8.288;2022-11-20T12:03:24;14.70;;;13.20;;
9160;SDS011;4615;51.340;8.288;2022-11-20T12:05:55;13.50;;;12.10;;
9160;SDS011;4615;51.340;8.288;2022-11-20T12:08:23;13.40;;;12.00;;
9160;SDS011;4615;51.340;8.288;2022-11-20T12:10:53;13.82;;;11.90;;
9160;SDS011;4615;51.340;8.288;2022-11-20T12:13:26;13.80;;;12.10;;
9160;SDS011;4615;51.340;8.288;2022-11-20T12:15:56;14.48;;;12.50;;
9160;SDS011;4615;51.340;8.288;2022-11-20T12:18:24;13.85;;;12.45;;
9160;SDS011;4615;51.340;8.288;2022-11-20T12:20:53;13.55;;;12.15;;
9160;SDS011;4615;51.340;8.288;2022-11-20T12:23:24;13.68;;;12.27;;
9160;SDS011;4615;51.340;8.288;2022-11-20T12:25:55;13.80;;;12.30;;
9160;SDS011;4615;51.340;8.288;2022-11-20T12:28:33;13.65;;;12.25;;
9160;SDS011;4615;51.340;8.288;2022-11-20T12:31:09;14.10;;;12.30;;
9160;SDS011;4615;51.340;8.288;2022-11-20T12:33:44;13.75;;;12.25;;
9160;SDS011;4615;51.340;8.288;2022-11-20T12:36:17;14.73;;;13.18;;
9160;SDS011;4615;51.340;8.288;2022-11-20T12:38:50;14.35;;;12.88;;
9160;SDS011;4615;51.340;8.288;2022-11-20T12:41:25;14.65;;;12.80;;
9160;SDS011;4615;51.340;8.288;2022-11-20T12:44:15;15.13;;;13.53;;
9160;SDS011;4615;51.340;8.288;2022-11-20T12:47:07;14.68;;;13.13;;
9160;SDS011;4615;51.340;8.288;2022-11-20T12:49:38;14.77;;;13.27;;
9160;SDS011;4615;51.340;8.288;2022-11-20T12:52:11;14.45;;;12.85;;
9160;SDS011;4615;51.340;8.288;2022-11-20T12:54:56;14.18;;;12.73;;
9160;SDS011;4615;51.340;8.288;2022-11-20T12:57:29;13.80;;;12.40;;
9160;SDS011;4615;51.340;8.288;2022-11-20T13:00:07;13.77;;;12.40;;
9160;SDS011;4615;51.340;8.288;2022-11-20T13:02:39;14.30;;;12.90;;
9160;SDS011;4615;51.340;8.288;2022-11-20T13:05:18;14.57;;;13.07;;
9160;SDS011;4615;51.340;8.288;2022-11-20T13:07:46;14.37;;;12.87;;
9160;SDS011;4615;51.340;8.288;2022-11-20T13:10:14;13.68;;;12.27;;
9160;SDS011;4615;51.340;8.288;2022-11-20T13:12:45;13.88;;;12.48;;
9160;SDS011;4615;51.340;8.288;2022-11-20T13:15:23;14.27;;;12.88;;
9160;SDS011;4615;51.340;8.288;2022-11-20T13:17:54;14.63;;;13.23;;
9160;SDS011;4615;51.340;8.288;2022-11-20T13:20:21;14.07;;;12.70;;
9160;SDS011;4615;51.340;8.288;2022-11-20T13:22:48;14.50;;;13.00;;
9160;SDS011;4615;51.340;8.288;2022-11-20T13:25:23;14.60;;;13.20;;
9160;SDS011;4615;51.340;8.288;2022-11-20T13:27:51;14.48;;;13.00;;
9160;SDS011;4615;51.340;8.288;2022-11-20T13:30:18;14.70;;;13.20;;
9160;SDS011;4615;51.340;8.288;2022-11-20T13:32:52;14.63;;;13.13;;
9160;SDS011;4615;51.340;8.288;2022-11-20T13:35:29;14.60;;;12.80;;
9160;SDS011;4615;51.340;8.288;2022-11-20T13:38:00;14.48;;;12.98;;
9160;SDS011;4615;51.340;8.288;2022-11-20T13:40:27;14.00;;;12.60;;
9160;SDS011;4615;51.340;8.288;2022-11-20T13:43:04;14.70;;;13.20;;
9160;SDS011;4615;51.340;8.288;2022-11-20T13:45:33;14.60;;;13.07;;
9160;SDS011;4615;51.340;8.288;2022-11-20T13:48:01;14.40;;;13.00;;
9160;SDS011;4615;51.340;8.288;2022-11-20T13:53:20;14.05;;;12.75;;
9160;SDS011;4615;51.340;8.288;2022-11-20T13:55:50;15.30;;;13.80;;
9160;SDS011;4615;51.340;8.288;2022-11-20T13:58:26;15.38;;;13.77;;
9160;SDS011;4615;51.340;8.288;2022-11-20T14:00:57;15.68;;;14.18;;
9160;SDS011;4615;51.340;8.288;2022-11-20T14:03:24;15.88;;;14.38;;
9160;SDS011;4615;51.340;8.288;2022-11-20T14:05:52;15.85;;;14.35;;
9160;SDS011;4615;51.340;8.288;2022-11-20T14:08:23;16.50;;;14.80;;
9160;SDS011;4615;51.340;8.288;2022-11-20T14:10:51;15.50;;;14.00;;
9160;SDS011;4615;51.340;8.288;2022-11-20T14:13:29;16.23;;;14.63;;
9160;SDS011;4615;51.340;8.288;2022-11-20T14:15:56;16.52;;;14.63;;
9160;SDS011;4615;51.340;8.288;2022-11-20T14:18:22;16.33;;;14.70;;
9160;SDS011;4615;51.340;8.288;2022-11-20T14:20:49;18.13;;;16.30;;
9160;SDS011;4615;51.340;8.288;2022-11-20T14:23:23;17.50;;;15.68;;
9160;SDS011;4615;51.340;8.288;2022-11-20T14:25:52;18.05;;;16.27;;
9160;SDS011;4615;51.340;8.288;2022-11-20T14:28:20;18.33;;;16.52;;
9160;SDS011;4615;51.340;8.288;2022-11-20T14:30:49;17.92;;;16.13;;
9160;SDS011;4615;51.340;8.288;2022-11-20T14:33:16;17.52;;;15.82;;
9160;SDS011;4615;51.340;8.288;2022-11-20T14:35:45;17.88;;;16.08;;
9160;SDS011;4615;51.340;8.288;2022-11-20T14:38:12;17.17;;;15.38;;
9160;SDS011;4615;51.340;8.288;2022-11-20T14:40:39;17.30;;;15.50;;
9160;SDS011;4615;51.340;8.288;2022-11-20T14:43:15;17.90;;;16.00;;
9160;SDS011;4615;51.340;8.288;2022-11-20T14:45:43;18.60;;;16.70;;
9160;SDS011;4615;51.340;8.288;2022-11-20T14:48:11;17.25;;;15.50;;
9160;SDS011;4615;51.340;8.288;2022-11-20T14:50:37;16.38;;;14.70;;
9160;SDS011;4615;51.340;8.288;2022-11-20T14:53:04;15.93;;;14.32;;
9160;SDS011;4615;51.340;8.288;2022-11-20T14:55:31;16.65;;;14.95;;
9160;SDS011;4615;51.340;8.288;2022-11-20T14:57:58;16.27;;;14.68;;
9160;SDS011;4615;51.340;8.288;2022-11-20T15:00:25;16.98;;;15.10;;
9160;SDS011;4615;51.340;8.288;2022-11-20T15:02:52;16.23;;;14.60;;
9160;SDS011;4615;51.340;8.288;2022-11-20T15:05:20;17.33;;;15.52;;
9160;SDS011;4615;51.340;8.288;2022-11-20T15:07:49;17.05;;;15.25;;
9160;SDS011;4615;51.340;8.288;2022-11-20T15:10:21;17.00;;;15.27;;
9160;SDS011;4615;51.340;8.288;2022-11-20T15:12:49;16.88;;;15.07;;
9160;SDS011;4615;51.340;8.288;2022-11-20T15:15:18;18.70;;;16.75;;